Time;durP1;ratioP1;P1;durP2;ratioP2;P2;SDS_P1;SDS_P2;PMS_P1;PMS_P2;Temp;Humidity;BMP_temperature;BMP_pressure;BME280_temperature;BME280_humidity;BME280_pressure;Samples;Min_cycle;Max_cycle;Signal;HPM_P1;HPM_P2
2022/05/12 00:02:18;;;;;;;12.25;5.85;;;;;;;12.09;88.38;101169.69;10403718;28;20030;-74
2022/05/12 00:07:18;;;;;;;7.90;4.78;;;;;;;11.90;89.54;101181.94;10383045;28;20068;-74
2022/05/12 00:12:19;;;;;;;8.30;5.78;;;;;;;11.70;90.13;101189.75;10399347;28;20133;-74
2022/05/12 00:17:19;;;;;;;13.80;6.38;;;;;;;11.57;91.16;101193.50;10383708;28;20080;-74
2022/05/12 00:22:20;;;;;;;15.75;7.47;;;;;;;11.59;91.64;101207.59;10402611;28;20080;-74
2022/05/12 00:27:21;;;;;;;14.35;7.78;;;;;;;11.57;91.96;101211.84;10400914;28;20057;-77
2022/05/12 00:32:21;;;;;;;13.55;7.05;;;;;;;11.62;92.19;101226.91;10399865;28;20263;-75
2022/05/12 00:37:21;;;;;;;14.45;7.38;;;;;;;11.48;91.88;101240.22;10401204;28;20121;-74
2022/05/12 00:42:22;;;;;;;10.63;7.18;;;;;;;11.38;91.46;101236.25;10349074;28;20452;-74
2022/05/12 00:47:22;;;;;;;12.65;7.10;;;;;;;11.30;90.60;101250.66;10366036;28;20149;-75
2022/05/12 00:52:26;;;;;;;9.52;6.38;;;;;;;11.18;90.16;101256.19;10383693;28;20057;-74
2022/05/12 00:57:55;;;;;;;12.18;6.53;;;;;;;11.00;89.98;101275.38;10393934;28;20042;-74
2022/05/12 01:03:06;;;;;;;18.63;7.18;;;;;;;10.92;89.78;101276.69;10388265;28;20527;-75
2022/05/12 01:08:16;;;;;;;12.10;6.28;;;;;;;10.70;90.48;101282.50;10395707;28;20044;-75
2022/05/12 01:13:22;;;;;;;10.30;6.88;;;;;;;10.54;90.90;101291.25;10397220;28;20047;-74
2022/05/12 01:18:23;;;;;;;11.73;6.55;;;;;;;10.38;91.53;101293.00;10382437;28;20450;-74
2022/05/12 01:23:31;;;;;;;8.98;6.93;;;;;;;10.20;92.34;101299.81;10363767;28;20482;-74
2022/05/12 01:28:32;;;;;;;11.73;7.53;;;;;;;10.04;92.60;101303.25;10349351;28;20501;-74
2022/05/12 01:33:33;;;;;;;12.23;6.40;;;;;;;9.82;92.85;101313.41;10382657;28;20037;-75
2022/05/12 01:38:33;;;;;;;12.48;7.25;;;;;;;9.73;93.08;101317.19;10382544;28;20041;-75
2022/05/12 01:43:34;;;;;;;14.82;6.88;;;;;;;9.58;93.63;101330.28;10362713;28;20099;-74
2022/05/12 01:48:34;;;;;;;17.15;7.10;;;;;;;9.36;94.00;101345.56;10398736;28;20034;-74
2022/05/12 01:53:35;;;;;;;12.68;6.90;;;;;;;9.21;94.63;101339.41;10382945;28;20040;-74
2022/05/12 01:58:36;;;;;;;15.20;6.40;;;;;;;9.06;95.70;101350.72;10400024;28;20041;-75
2022/05/12 02:03:36;;;;;;;11.48;7.30;;;;;;;8.94;95.66;101356.09;10382781;28;20034;-74
2022/05/12 02:08:37;;;;;;;16.02;7.70;;;;;;;8.84;96.95;101366.78;10395447;28;20132;-75
2022/05/12 02:13:37;;;;;;;15.35;7.18;;;;;;;8.64;96.64;101375.94;10399105;28;20195;-75
2022/05/12 02:18:39;;;;;;;13.40;7.57;;;;;;;8.54;97.46;101383.97;10349650;28;20497;-74
2022/05/12 02:23:40;;;;;;;14.47;7.80;;;;;;;8.39;97.86;101395.19;10399440;28;20041;-74
2022/05/12 02:28:40;;;;;;;15.48;7.80;;;;;;;8.25;98.98;101399.53;10380122;28;20378;-75
2022/05/12 02:33:41;;;;;;;15.13;8.75;;;;;;;8.08;99.02;101406.22;10365230;28;20030;-74
2022/05/12 02:38:41;;;;;;;16.20;8.73;;;;;;;8.07;99.33;101401.81;10402299;28;20068;-74
2022/05/12 02:43:42;;;;;;;16.83;9.50;;;;;;;7.95;99.20;101409.72;10385520;28;20486;-74
2022/05/12 02:48:44;;;;;;;16.23;8.35;;;;;;;7.92;99.96;101422.56;10389442;28;20057;-75
2022/05/12 02:53:44;;;;;;;13.60;8.40;;;;;;;7.78;99.91;101430.34;10386625;28;20045;-74
2022/05/12 02:58:45;;;;;;;20.75;9.98;;;;;;;7.79;100.00;101426.03;10403578;28;20504;-74
2022/05/12 03:03:45;;;;;;;18.80;10.32;;;;;;;7.64;100.00;101429.38;10384050;28;20076;-76
2022/05/12 03:08:46;;;;;;;16.42;11.05;;;;;;;7.56;100.00;101440.09;10388896;28;20537;-74
2022/05/12 03:13:49;;;;;;;18.65;11.35;;;;;;;7.55;100.00;101438.28;10403106;28;20125;-75
2022/05/12 03:18:51;;;;;;;18.80;10.30;;;;;;;7.50;100.00;101435.34;10371813;28;20048;-74
2022/05/12 03:23:51;;;;;;;18.48;11.02;;;;;;;7.42;100.00;101447.84;10376525;28;20043;-74
2022/05/12 03:28:52;;;;;;;20.63;11.18;;;;;;;7.38;100.00;101447.53;10371588;28;20053;-74
2022/05/12 03:33:52;;;;;;;27.35;12.50;;;;;;;7.27;100.00;101454.59;10403102;28;20236;-74
2022/05/12 03:38:53;;;;;;;22.23;11.98;;;;;;;7.25;100.00;101458.78;10403655;28;20116;-75
2022/05/12 03:49:12;;;;;;;27.35;11.68;;;;;;;7.16;100.00;101466.84;10387564;28;20041;-74
2022/05/12 03:54:13;;;;;;;21.00;11.73;;;;;;;7.10;100.00;101476.81;10384245;28;20124;-74
2022/05/12 03:59:14;;;;;;;20.90;12.90;;;;;;;7.04;100.00;101491.19;10385114;28;20485;-74
2022/05/12 04:04:14;;;;;;;21.38;12.23;;;;;;;7.07;100.00;101479.19;10403067;28;20100;-75
2022/05/12 04:09:15;;;;;;;22.88;14.18;;;;;;;7.13;100.00;101490.97;10401906;28;20041;-74
2022/05/12 04:14:18;;;;;;;25.27;12.82;;;;;;;7.18;100.00;101501.69;10400980;28;20068;-75
2022/05/12 04:19:19;;;;;;;21.27;12.77;;;;;;;7.20;100.00;101506.22;10374579;28;20049;-73
2022/05/12 04:24:19;;;;;;;25.42;12.63;;;;;;;7.26;100.00;101508.34;10366019;28;20584;-73
2022/05/12 04:29:20;;;;;;;23.40;13.32;;;;;;;7.32;100.00;101515.72;10378593;28;20049;-75
2022/05/12 04:39:39;;;;;;;25.27;14.68;;;;;;;7.49;100.00;101536.03;10399119;28;20132;-74
2022/05/12 04:44:40;;;;;;;19.25;11.27;;;;;;;7.56;100.00;101549.50;10396627;28;20558;-74
2022/05/12 04:49:40;;;;;;;24.92;13.77;;;;;;;7.68;100.00;101554.66;10397716;28;20061;-76
2022/05/12 04:54:41;;;;;;;25.05;12.38;;;;;;;7.81;100.00;101546.91;10381200;28;20052;-73
2022/05/12 04:59:41;;;;;;;19.95;13.73;;;;;;;8.17;100.00;101551.97;10382224;28;20400;-75
2022/05/12 05:04:42;;;;;;;29.20;14.15;;;;;;;8.28;100.00;101561.44;10398028;28;20132;-75
2022/05/12 05:09:43;;;;;;;22.83;13.43;;;;;;;8.47;100.00;101571.38;10377443;28;20576;-75
2022/05/12 05:14:43;;;;;;;26.35;13.10;;;;;;;8.68;100.00;101584.09;10397364;28;20065;-74
2022/05/12 05:19:44;;;;;;;22.13;13.65;;;;;;;8.96;100.00;101593.75;10365410;28;20049;-75
2022/05/12 05:24:45;;;;;;;22.38;13.80;;;;;;;9.49;100.00;101589.28;10362902;28;20418;-74
2022/05/12 05:29:45;;;;;;;24.30;15.25;;;;;;;10.73;100.00;101591.59;10378524;28;20041;-74
2022/05/12 05:34:46;;;;;;;19.27;9.80;;;;;;;11.79;99.93;101595.78;10362207;28;20033;-74
2022/05/12 05:39:46;;;;;;;22.40;13.02;;;;;;;12.84;90.92;101602.09;10382905;28;20050;-74
2022/05/12 05:44:47;;;;;;;17.40;9.85;;;;;;;13.81;83.66;101600.59;10365721;28;20060;-74
2022/05/12 05:49:48;;;;;;;16.05;10.73;;;;;;;14.87;76.84;101603.47;10364671;28;20068;-74
2022/05/12 05:54:48;;;;;;;19.30;10.15;;;;;;;15.84;72.45;101613.44;10395977;28;20036;-74
2022/05/12 05:59:49;;;;;;;19.27;12.93;;;;;;;16.20;70.10;101636.81;10399962;28;20112;-74
2022/05/12 06:04:49;;;;;;;22.55;13.05;;;;;;;17.02;67.75;101641.44;10399090;28;20128;-74
2022/05/12 06:09:51;;;;;;;22.37;14.13;;;;;;;17.44;65.19;101638.41;10397616;28;20037;-74
2022/05/12 06:14:51;;;;;;;21.03;13.63;;;;;;;17.21;66.54;101637.66;10402832;28;20488;-74
2022/05/12 06:19:52;;;;;;;24.20;15.73;;;;;;;16.63;66.85;101649.78;10407683;28;20079;-74
2022/05/12 06:24:54;;;;;;;23.57;16.43;;;;;;;17.09;67.75;101650.47;10390459;28;20061;-74
2022/05/12 06:29:56;;;;;;;32.03;17.63;;;;;;;18.08;64.77;101656.22;10405085;28;20123;-73
2022/05/12 06:34:56;;;;;;;31.58;18.17;;;;;;;18.86;62.49;101661.00;10396422;28;20060;-74
2022/05/12 06:39:57;;;;;;;26.80;17.83;;;;;;;19.13;59.39;101665.25;10367927;28;20129;-73
2022/05/12 06:44:58;;;;;;;23.43;17.03;;;;;;;18.11;61.22;101666.91;10332213;28;20041;-73
2022/05/12 06:50:01;;;;;;;33.95;22.00;;;;;;;16.34;66.54;101678.69;10386945;28;20477;-73
2022/05/12 06:55:02;;;;;;;37.20;22.10;;;;;;;17.41;64.52;101683.28;10354262;28;20096;-73
2022/05/12 07:00:04;;;;;;;36.45;20.42;;;;;;;16.99;65.33;101683.66;10371456;28;20053;-73
2022/05/12 07:05:06;;;;;;;26.27;20.52;;;;;;;15.92;69.34;101679.75;10387479;28;20044;-73
2022/05/12 07:10:07;;;;;;;32.13;23.63;;;;;;;15.76;71.75;101680.88;10386745;28;20080;-73
2022/05/12 07:15:08;;;;;;;32.10;20.77;;;;;;;17.12;65.91;101695.53;10385564;28;20129;-76
2022/05/12 07:31:00;;;;;;;29.83;20.48;;;;;;;16.04;68.01;101716.31;10393822;28;20041;-72
2022/05/12 07:36:04;;;;;;;22.77;16.60;;;;;;;16.00;67.86;101713.53;10384865;28;20115;-72
2022/05/12 07:41:07;;;;;;;28.40;18.42;;;;;;;15.65;67.72;101717.38;10384226;28;20124;-72
2022/05/12 07:46:08;;;;;;;23.08;13.65;;;;;;;16.25;65.47;101721.50;10394373;28;20117;-72
2022/05/12 07:51:09;;;;;;;25.40;16.70;;;;;;;18.13;61.88;101723.47;10389440;28;20092;-73
2022/05/12 07:56:10;;;;;;;25.45;15.55;;;;;;;19.00;57.94;101727.72;10392818;28;20092;-73
2022/05/12 08:01:12;;;;;;;28.15;20.17;;;;;;;21.15;55.14;101714.72;10384725;28;20127;-73
2022/05/12 08:06:14;;;;;;;21.13;17.45;;;;;;;20.44;53.50;101720.47;10398806;28;20041;-73
2022/05/12 08:11:15;;;;;;;25.50;17.20;;;;;;;19.57;55.59;101730.91;10377395;28;20107;-73
2022/05/12 08:16:17;;;;;;;20.80;15.45;;;;;;;21.00;52.14;101744.63;10399517;28;20107;-73
2022/05/12 08:21:18;;;;;;;22.02;15.70;;;;;;;20.28;54.56;101739.63;10365354;28;20060;-72
2022/05/12 08:26:18;;;;;;;24.25;15.38;;;;;;;18.23;58.03;101743.22;10369258;28;20055;-73
2022/05/12 08:31:21;;;;;;;24.40;16.48;;;;;;;16.65;61.78;101749.41;10341303;28;20083;-73
2022/05/12 08:36:22;;;;;;;18.23;12.10;;;;;;;16.60;63.59;101748.31;10347828;28;20129;-72
2022/05/12 08:41:38;;;;;;;14.20;11.70;;;;;;;19.44;53.51;101748.28;10352280;28;20046;-73
2022/05/12 08:46:44;;;;;;;15.18;11.50;;;;;;;19.13;55.11;101743.09;10364504;28;20048;-72
2022/05/12 08:52:00;;;;;;;20.15;10.32;;;;;;;22.22;48.05;101735.91;10383068;28;20045;-73
2022/05/12 08:57:05;;;;;;;13.60;9.25;;;;;;;22.00;46.22;101743.59;10366293;28;20033;-73
2022/05/12 09:02:17;;;;;;;14.43;8.50;;;;;;;20.96;45.89;101744.56;10384999;28;20535;-73
2022/05/12 09:07:27;;;;;;;13.25;8.60;;;;;;;22.18;43.70;101731.41;10383632;28;20457;-72
2022/05/12 09:12:56;;;;;;;11.23;6.53;;;;;;;25.67;39.83;101732.69;10384257;28;20052;-73
2022/05/12 09:18:00;;;;;;;8.57;7.07;;;;;;;25.41;39.35;101736.25;10382949;28;20448;-73
2022/05/12 09:23:01;;;;;;;9.15;7.38;;;;;;;24.34;37.14;101741.38;10401177;28;20033;-76
2022/05/12 09:28:14;;;;;;;9.35;5.25;;;;;;;25.62;36.47;101738.06;10366769;28;20030;-74
2022/05/12 09:33:26;;;;;;;6.53;4.35;;;;;;;24.54;36.47;101732.53;10383091;28;20033;-73
2022/05/12 09:38:26;;;;;;;12.15;7.85;;;;;;;24.72;35.15;101737.03;10383652;28;20552;-75
2022/05/12 09:43:31;;;;;;;14.77;5.73;;;;;;;21.66;39.57;101742.22;10367780;28;20049;-72
2022/05/12 09:48:33;;;;;;;13.77;4.93;;;;;;;19.97;44.53;101736.28;10382540;28;20474;-72
2022/05/12 09:53:34;;;;;;;15.30;9.32;;;;;;;21.84;41.22;101726.50;10400302;28;20057;-72
2022/05/12 09:58:39;;;;;;;11.43;5.13;;;;;;;20.56;43.51;101729.56;10367456;28;20128;-73
2022/05/12 10:09:14;;;;;;;7.97;5.32;;;;;;;23.81;35.80;101708.09;10385042;28;20041;-72
2022/05/12 10:14:27;;;;;;;9.05;4.05;;;;;;;24.89;33.72;101713.91;10381868;28;20038;-73
2022/05/12 10:19:29;;;;;;;6.95;3.20;;;;;;;25.11;33.46;101721.97;10384226;28;20077;-73
2022/05/12 10:24:51;;;;;;;6.15;3.63;;;;;;;24.57;34.68;101719.19;10379159;28;20038;-72
2022/05/12 10:30:16;;;;;;;10.30;2.80;;;;;;;24.37;34.29;101705.72;10341621;28;20104;-72
2022/05/12 10:35:34;;;;;;;7.25;2.78;;;;;;;26.42;30.93;101709.25;10398843;28;20102;-73
2022/05/12 10:40:44;;;;;;;5.78;3.72;;;;;;;24.64;34.54;101716.50;10382058;28;20501;-73
2022/05/12 10:46:11;;;;;;;5.78;3.85;;;;;;;25.47;33.55;101720.19;10382815;28;20080;-72
2022/05/12 10:51:42;;;;;;;6.97;3.40;;;;;;;24.45;34.52;101717.34;10381872;28;20436;-72
2022/05/12 10:56:54;;;;;;;9.67;3.40;;;;;;;23.88;34.38;101716.19;10399120;28;20048;-72
2022/05/12 11:02:25;;;;;;;4.95;2.50;;;;;;;22.73;35.24;101720.56;10373057;28;20509;-72
2022/05/12 11:07:31;;;;;;;8.82;3.15;;;;;;;24.51;35.29;101711.13;10376329;28;20044;-73
2022/05/12 11:12:43;;;;;;;7.80;3.20;;;;;;;25.34;34.30;101715.72;10379984;28;20436;-73
2022/05/12 11:17:48;;;;;;;5.55;3.78;;;;;;;25.58;32.52;101688.03;10348495;28;20049;-73
2022/05/12 11:22:50;;;;;;;8.52;4.18;;;;;;;23.77;35.91;101696.50;10364961;28;20494;-73
2022/05/12 11:33:38;;;;;;;9.70;4.63;;;;;;;25.06;34.25;101694.28;10365240;28;19917;-73
2022/05/12 11:38:39;;;;;;;8.30;3.88;;;;;;;24.82;34.22;101688.03;10348144;28;20541;-73
2022/05/12 11:49:37;;;;;;;8.00;4.57;;;;;;;26.07;32.38;101689.66;10350270;28;20478;-72
2022/05/12 11:54:40;;;;;;;5.82;2.83;;;;;;;25.35;32.45;101671.94;10251605;28;20104;-73
2022/05/12 11:59:40;;;;;;;6.28;3.60;;;;;;;26.29;32.42;101673.50;10346686;28;20121;-72
2022/05/12 12:04:42;;;;;;;7.87;4.10;;;;;;;26.39;32.05;101682.41;10365025;28;20056;-73
2022/05/12 12:09:43;;;;;;;12.20;5.32;;;;;;;25.57;33.60;101686.25;10344842;28;20052;-73
2022/05/12 12:14:46;;;;;;;6.70;4.23;;;;;;;25.24;33.73;101680.00;10388494;28;20042;-74
2022/05/12 12:19:48;;;;;;;6.43;4.70;;;;;;;26.05;32.63;101675.38;10403163;28;20123;-73
2022/05/12 12:25:01;;;;;;;7.93;3.90;;;;;;;25.34;31.42;101672.84;10386536;28;20029;-74
2022/05/12 12:30:36;;;;;;;5.22;3.42;;;;;;;24.37;34.04;101673.63;10371028;28;20125;-72
2022/05/12 12:36:00;;;;;;;9.18;4.72;;;;;;;24.46;34.06;101682.59;10353562;28;20363;-73
2022/05/12 12:41:01;;;;;;;8.93;4.10;;;;;;;23.59;34.99;101684.81;10402278;28;20049;-73
2022/05/12 12:46:14;;;;;;;6.00;4.00;;;;;;;22.19;38.81;101693.19;10364142;28;20081;-74
2022/05/12 12:51:30;;;;;;;15.32;5.93;;;;;;;21.64;38.26;101688.03;10366160;28;20057;-72
2022/05/12 12:56:30;;;;;;;5.20;3.95;;;;;;;21.96;38.03;101676.94;10396723;28;20052;-72
2022/05/12 13:01:40;;;;;;;8.73;5.28;;;;;;;22.46;39.42;101666.91;10368195;28;20056;-72
2022/05/12 13:06:41;;;;;;;11.60;4.72;;;;;;;22.57;37.20;101659.91;10402282;28;20038;-74
2022/05/12 13:11:41;;;;;;;19.08;6.00;;;;;;;22.26;37.51;101644.41;10401252;28;20120;-74
2022/05/12 13:16:46;;;;;;;13.10;5.07;;;;;;;23.34;38.44;101642.81;10383150;28;20052;-73
2022/05/12 13:21:47;;;;;;;12.13;4.97;;;;;;;23.29;36.15;101643.66;10367954;28;20444;-74
2022/05/12 13:26:48;;;;;;;10.60;4.33;;;;;;;22.24;37.64;101646.16;10367363;28;20037;-75
2022/05/12 13:32:01;;;;;;;12.05;4.50;;;;;;;22.24;38.38;101635.50;10382965;28;20128;-75
2022/05/12 13:37:24;;;;;;;11.90;5.32;;;;;;;22.35;38.34;101645.41;10367778;28;20136;-74
2022/05/12 13:42:46;;;;;;;10.88;4.25;;;;;;;22.69;36.40;101646.69;10383808;28;20136;-74
2022/05/12 13:47:50;;;;;;;11.93;4.20;;;;;;;23.17;34.92;101639.09;10350186;28;20045;-77
2022/05/12 13:52:56;;;;;;;8.15;4.07;;;;;;;23.09;34.98;101640.78;10366313;28;20119;-74
2022/05/12 13:58:02;;;;;;;9.95;4.75;;;;;;;23.60;34.40;101630.50;10367242;28;20121;-74
2022/05/12 14:03:20;;;;;;;7.00;3.47;;;;;;;23.64;33.43;101630.53;10401022;28;20037;-74
2022/05/12 14:08:28;;;;;;;7.35;4.00;;;;;;;22.51;34.48;101631.38;10366218;28;20389;-74
2022/05/12 14:24:10;;;;;;;8.20;4.20;;;;;;;21.64;39.69;101627.66;10400600;28;20436;-75
2022/05/12 14:29:11;;;;;;;10.25;4.28;;;;;;;22.89;36.04;101611.28;10399107;28;20077;-73
2022/05/12 14:34:11;;;;;;;9.63;3.90;;;;;;;23.83;34.11;101613.69;10368741;28;20037;-74
2022/05/12 14:39:12;;;;;;;9.73;4.20;;;;;;;24.07;34.09;101611.13;10373943;28;20098;-74
2022/05/12 14:44:13;;;;;;;8.77;5.13;;;;;;;22.99;35.28;101607.81;10389310;28;20473;-74
2022/05/12 14:49:17;;;;;;;7.10;3.93;;;;;;;21.95;34.98;101612.06;10370224;28;20581;-74
2022/05/12 14:54:17;;;;;;;9.85;4.75;;;;;;;21.33;36.23;101624.50;10401268;28;20041;-74
2022/05/12 14:59:19;;;;;;;6.07;3.80;;;;;;;21.30;38.40;101610.28;10405779;28;20049;-75
2022/05/12 15:04:19;;;;;;;;;;;;;;;20.92;38.32;101608.78;10403469;28;20049;-74
2022/05/12 15:09:20;;;;;;;6.43;4.43;;;;;;;20.60;38.93;101609.09;10372344;28;19979;-74
2022/05/12 15:14:21;;;;;;;6.80;4.18;;;;;;;20.70;38.89;101603.06;10403052;28;20325;-75
2022/05/12 15:19:22;;;;;;;12.00;5.32;;;;;;;20.65;38.09;101597.69;10354882;28;20045;-75
2022/05/12 15:24:22;;;;;;;8.17;4.47;;;;;;;20.70;36.46;101589.75;10370032;28;20040;-74
2022/05/12 15:29:23;;;;;;;6.30;4.15;;;;;;;20.56;37.64;101594.84;10387432;28;20057;-73
2022/05/12 15:34:24;;;;;;;8.80;4.40;;;;;;;20.65;37.34;101589.69;10386325;28;20087;-74
2022/05/12 15:39:25;;;;;;;8.50;4.97;;;;;;;20.64;39.14;101587.91;10386665;28;20037;-75
2022/05/12 15:44:25;;;;;;;6.57;4.65;;;;;;;20.43;38.37;101588.41;10401573;28;20078;-74
2022/05/12 15:49:28;;;;;;;20.27;12.07;;;;;;;20.18;39.69;101592.38;10403952;28;20512;-74
2022/05/12 15:54:29;;;;;;;9.60;5.22;;;;;;;20.19;38.84;101596.81;10383155;28;20067;-74
2022/05/12 15:59:29;;;;;;;12.48;6.72;;;;;;;19.92;39.06;101585.66;10399880;28;20536;-74
2022/05/12 16:04:30;;;;;;;10.70;6.82;;;;;;;19.99;39.13;101586.69;10368100;28;20038;-75
2022/05/12 16:09:31;;;;;;;12.18;5.45;;;;;;;19.72;38.90;101585.22;10370327;28;20124;-74
2022/05/12 16:14:50;;;;;;;4.90;3.13;;;;;;;19.64;40.03;101574.44;10394800;28;20073;-74
2022/05/12 16:19:50;;;;;;;9.10;5.43;;;;;;;19.87;40.76;101576.66;10399946;28;20467;-74
2022/05/12 16:24:50;;;;;;;11.30;6.47;;;;;;;19.90;38.68;101568.78;10380223;28;20040;-74
2022/05/12 16:29:59;;;;;;;10.80;6.47;;;;;;;19.74;39.39;101558.69;10371419;28;20126;-74
2022/05/12 16:35:01;;;;;;;12.52;4.95;;;;;;;19.95;39.22;101561.81;10373694;28;20044;-74
2022/05/12 16:40:03;;;;;;;12.05;3.72;;;;;;;19.61;40.46;101553.13;10359598;28;20041;-75
2022/05/12 16:45:03;;;;;;;;;;;;;;;19.36;40.90;101546.41;10349412;28;20033;-74
2022/05/12 16:50:05;;;;;;;5.85;3.30;;;;;;;18.96;40.70;101545.44;10399199;28;19921;-75
2022/05/12 16:55:06;;;;;;;6.97;3.63;;;;;;;18.70;42.16;101541.28;10364162;28;20044;-74
2022/05/12 17:00:07;;;;;;;7.90;2.63;;;;;;;18.73;42.54;101551.97;10384583;28;20125;-74
2022/05/12 17:05:08;;;;;;;7.40;3.58;;;;;;;18.66;42.20;101541.19;10381592;28;20041;-73
2022/05/12 17:10:09;;;;;;;11.10;4.97;;;;;;;18.68;42.09;101529.75;10400929;28;20029;-74
2022/05/12 17:15:10;;;;;;;9.73;3.00;;;;;;;18.78;41.91;101537.06;10398437;28;20041;-74
2022/05/12 17:20:11;;;;;;;4.85;2.50;;;;;;;18.92;41.25;101545.38;10344765;28;20038;-73
2022/05/12 17:25:12;;;;;;;6.05;2.55;;;;;;;18.85;43.50;101532.81;10393803;28;20037;-74
2022/05/12 17:30:12;;;;;;;11.80;6.95;;;;;;;18.57;42.86;101541.84;10379294;28;20121;-73
2022/05/12 17:35:13;;;;;;;10.70;6.30;;;;;;;18.30;45.03;101548.22;10397698;28;20044;-72
2022/05/12 17:40:17;;;;;;;5.63;3.42;;;;;;;17.98;44.94;101551.75;10380493;28;20065;-73
2022/05/12 17:45:18;;;;;;;6.32;2.80;;;;;;;17.73;45.69;101552.78;10367954;28;20064;-72
2022/05/12 17:50:20;;;;;;;7.70;2.67;;;;;;;17.52;46.56;101559.25;10396455;28;20481;-73
2022/05/12 17:55:20;;;;;;;13.70;5.00;;;;;;;17.30;47.32;101560.34;10382783;28;20072;-73
2022/05/12 18:00:21;;;;;;;9.60;3.22;;;;;;;17.10;49.06;101554.41;10370391;28;20152;-72
2022/05/12 18:05:21;;;;;;;7.38;2.55;;;;;;;16.79;49.42;101553.38;10363685;28;20045;-72
2022/05/12 18:10:22;;;;;;;6.20;2.42;;;;;;;16.53;50.37;101556.97;10368883;28;20124;-73
2022/05/12 18:15:23;;;;;;;6.60;2.70;;;;;;;16.32;49.95;101558.88;10368220;28;20029;-73
2022/05/12 18:20:24;;;;;;;6.47;2.67;;;;;;;16.05;51.45;101559.69;10397033;28;20034;-72
2022/05/12 18:25:27;;;;;;;5.68;3.28;;;;;;;15.69;53.44;101560.97;10364453;28;20146;-72
2022/05/12 18:30:27;;;;;;;5.43;2.08;;;;;;;15.29;54.17;101555.06;10371575;28;20041;-74
2022/05/12 18:35:28;;;;;;;7.90;2.15;;;;;;;14.96;55.27;101558.16;10371362;28;20485;-72
2022/05/12 18:40:28;;;;;;;3.25;2.20;;;;;;;14.65;58.97;101559.50;10363815;28;20045;-75
2022/05/12 18:45:29;;;;;;;4.45;1.95;;;;;;;14.34;58.40;101563.47;10405765;28;20106;-76
2022/05/12 18:50:29;;;;;;;4.95;2.20;;;;;;;14.02;60.75;101568.19;10386206;28;20041;-75
2022/05/12 18:55:30;;;;;;;5.88;2.50;;;;;;;13.70;63.98;101563.25;10387673;28;20041;-76
2022/05/12 19:00:31;;;;;;;9.57;2.53;;;;;;;13.47;66.29;101572.72;10403825;28;20069;-76
2022/05/12 19:05:32;;;;;;;6.22;3.13;;;;;;;13.17;66.83;101571.28;10389519;28;20044;-73
2022/05/12 19:10:33;;;;;;;7.38;3.60;;;;;;;12.85;67.19;101577.63;10386648;28;20544;-72
2022/05/12 19:15:35;;;;;;;8.20;3.28;;;;;;;12.60;68.45;101573.75;10350282;28;20034;-73
2022/05/12 19:20:40;;;;;;;5.05;2.40;;;;;;;12.35;70.43;101588.25;10388457;28;20037;-72
2022/05/12 19:25:42;;;;;;;9.52;3.35;;;;;;;12.16;72.63;101589.00;10367874;28;20033;-75
2022/05/12 19:30:43;;;;;;;9.40;3.47;;;;;;;12.00;72.57;101601.28;10371003;28;20034;-76
2022/05/12 19:35:44;;;;;;;8.43;4.57;;;;;;;11.90;72.92;101604.22;10385600;28;20062;-73
2022/05/12 19:40:45;;;;;;;5.53;2.85;;;;;;;11.97;73.69;101610.72;10387910;28;20030;-73
2022/05/12 19:45:46;;;;;;;7.50;2.70;;;;;;;12.15;74.68;101623.94;10401731;28;20497;-73
2022/05/12 19:50:47;;;;;;;6.65;3.65;;;;;;;12.27;73.87;101629.81;10404023;28;20026;-73
2022/05/12 19:55:51;;;;;;;6.50;3.13;;;;;;;12.39;73.23;101640.09;10352556;28;20059;-76
2022/05/12 20:00:51;;;;;;;8.20;3.53;;;;;;;12.38;71.80;101645.25;10370891;28;20120;-76
2022/05/12 20:05:52;;;;;;;8.98;3.42;;;;;;;12.11;72.66;101651.75;10385476;28;20051;-75
2022/05/12 20:10:53;;;;;;;8.48;4.20;;;;;;;11.99;73.88;101648.41;10386644;28;20057;-73
2022/05/12 20:15:56;;;;;;;9.45;3.75;;;;;;;12.02;72.54;101661.75;10402081;28;20040;-73
2022/05/12 20:20:56;;;;;;;7.78;3.33;;;;;;;12.11;69.72;101664.88;10370041;28;20038;-73
2022/05/12 20:25:56;;;;;;;7.10;3.25;;;;;;;12.02;69.61;101667.88;10365674;28;20489;-76
2022/05/12 20:30:58;;;;;;;9.43;4.28;;;;;;;11.81;70.12;101666.66;10402075;28;20120;-75
2022/05/12 20:36:00;;;;;;;8.98;4.13;;;;;;;11.53;70.28;101672.97;10384813;28;20064;-75
2022/05/12 20:41:01;;;;;;;9.57;3.53;;;;;;;11.29;71.35;101681.25;10383716;28;20080;-76
2022/05/12 20:46:06;;;;;;;10.15;4.30;;;;;;;11.13;71.76;101679.47;10398027;28;20548;-73
2022/05/12 20:51:09;;;;;;;9.25;4.95;;;;;;;11.22;71.09;101679.09;10386723;28;20032;-75
2022/05/12 20:56:10;;;;;;;4.90;2.47;;;;;;;11.22;70.99;101686.94;10367382;28;20045;-75
2022/05/12 21:01:10;;;;;;;8.75;3.03;;;;;;;11.38;68.99;101691.38;10366950;28;20481;-76
2022/05/12 21:06:11;;;;;;;5.82;2.45;;;;;;;11.36;68.61;101696.50;10382686;28;20042;-77
2022/05/12 21:11:11;;;;;;;6.20;2.60;;;;;;;11.18;69.54;101703.31;10368317;28;20505;-76
2022/05/12 21:16:12;;;;;;;9.45;3.72;;;;;;;11.18;70.25;101713.78;10342342;28;20041;-76
2022/05/12 21:21:13;;;;;;;6.13;2.22;;;;;;;11.13;68.87;101713.53;10357864;28;20045;-75
2022/05/12 21:26:15;;;;;;;6.22;2.83;;;;;;;10.90;69.68;101720.91;10359708;28;20057;-75
2022/05/12 21:31:17;;;;;;;;;;;;;;;10.61;70.87;101729.63;10360355;28;20041;-76
2022/05/12 21:36:17;;;;;;;6.75;2.75;;;;;;;10.25;74.81;101732.63;10356775;28;19928;-75
2022/05/12 21:41:18;;;;;;;7.55;2.42;;;;;;;9.98;76.82;101720.50;10361564;28;20121;-76
2022/05/12 21:46:18;;;;;;;5.95;2.72;;;;;;;9.70;76.64;101734.41;10358923;28;20045;-75
2022/05/12 21:51:19;;;;;;;4.60;2.22;;;;;;;9.48;78.88;101733.81;10360497;28;20123;-75
2022/05/12 21:56:26;;;;;;;5.97;3.20;;;;;;;9.32;78.97;101730.19;10345900;28;20128;-75
2022/05/12 22:01:33;;;;;;;5.50;1.80;;;;;;;9.13;78.99;101725.47;10359074;28;20049;-75
2022/05/12 22:06:37;;;;;;;7.20;3.58;;;;;;;8.86;78.23;101725.41;10358456;28;20046;-75
2022/05/12 22:16:57;;;;;;;7.25;2.63;;;;;;;8.71;81.23;101720.00;10398657;28;20434;-74
2022/05/12 22:21:59;;;;;;;4.10;2.47;;;;;;;8.57;79.13;101719.06;10381554;28;20038;-75
2022/05/12 22:26:59;;;;;;;3.97;1.93;;;;;;;8.50;79.63;101720.34;10397624;28;20046;-74
2022/05/12 22:32:00;;;;;;;6.63;2.70;;;;;;;8.40;80.47;101720.47;10382765;28;20493;-75
2022/05/12 22:37:00;;;;;;;4.63;1.83;;;;;;;8.31;82.09;101725.94;10379829;28;20038;-75
2022/05/12 22:42:01;;;;;;;3.90;2.05;;;;;;;8.25;81.89;101720.31;10382148;28;20388;-75
2022/05/12 22:47:02;;;;;;;4.53;2.38;;;;;;;8.30;82.89;101715.41;10380999;28;20046;-75
2022/05/12 22:52:03;;;;;;;7.68;3.55;;;;;;;8.20;82.66;101714.75;10399790;28;20052;-75
2022/05/12 22:57:04;;;;;;;6.68;3.40;;;;;;;8.05;83.58;101718.88;10401664;28;20041;-75
2022/05/12 23:02:05;;;;;;;4.40;2.35;;;;;;;7.92;84.27;101722.31;10405408;28;20197;-75
2022/05/12 23:07:05;;;;;;;6.43;2.92;;;;;;;7.81;85.13;101718.91;10404151;28;20045;-75
2022/05/12 23:12:06;;;;;;;9.63;3.28;;;;;;;7.67;86.23;101710.09;10390104;28;20374;-75
2022/05/12 23:17:07;;;;;;;5.63;3.50;;;;;;;7.60;87.04;101720.88;10404454;28;20514;-75
2022/05/12 23:22:08;;;;;;;7.22;3.03;;;;;;;7.50;86.96;101724.47;10384507;28;20095;-74
2022/05/12 23:27:08;;;;;;;12.40;3.80;;;;;;;7.41;87.71;101709.09;10387949;28;20045;-76
2022/05/12 23:32:09;;;;;;;8.02;3.75;;;;;;;7.31;87.78;101709.22;10405470;28;20103;-75
2022/05/12 23:37:09;;;;;;;7.57;3.35;;;;;;;7.19;88.88;101720.53;10404428;28;20072;-74
2022/05/12 23:42:10;;;;;;;9.07;5.00;;;;;;;7.09;89.39;101714.50;10386761;28;20079;-75
2022/05/12 23:47:10;;;;;;;8.02;4.32;;;;;;;6.97;89.31;101711.88;10403053;28;20069;-74
2022/05/12 23:52:11;;;;;;;8.18;3.92;;;;;;;6.85;90.63;101704.03;10370214;28;20034;-75
2022/05/12 23:57:11;;;;;;;14.45;5.45;;;;;;;6.72;90.23;101705.69;10403356;28;20444;-75
